createdAt,value
2019-03-13T00:02:31.135Z,67.28
2019-03-13T00:05:00.479Z,66.44
2019-03-13T00:07:32.386Z,67.27
2019-03-13T00:10:01.673Z,67.05
2019-03-13T00:12:32.623Z,66.25
2019-03-13T00:15:01.976Z,65.63
2019-03-13T00:17:31.193Z,66.27
2019-03-13T00:20:00.485Z,64.76
2019-03-13T00:22:29.642Z,65.15
2019-03-13T00:24:58.886Z,65.39
2019-03-13T00:27:31.662Z,64.72
2019-03-13T00:30:01.071Z,64.49
2019-03-13T00:32:30.346Z,64.19
2019-03-13T00:34:59.527Z,63.79
2019-03-13T00:37:28.714Z,64.47
2019-03-13T00:39:57.862Z,63.80
2019-03-13T00:42:27.098Z,63.59
2019-03-13T00:44:56.281Z,64.41
2019-03-13T00:47:28.271Z,64.63
2019-03-13T00:49:57.394Z,64.33
2019-03-13T00:52:26.627Z,64.10
2019-03-13T00:54:55.813Z,64.03
2019-03-13T00:57:25.088Z,63.68
2019-03-13T00:59:54.259Z,63.57
2019-03-13T01:02:30.105Z,63.98
2019-03-13T01:05:04.761Z,63.77
2019-03-13T01:07:33.994Z,63.71
2019-03-13T01:10:03.188Z,63.64
2019-03-13T01:12:32.385Z,63.69
2019-03-13T01:15:01.583Z,63.56
2019-03-13T01:17:30.743Z,63.79
2019-03-13T01:19:59.959Z,63.79
2019-03-13T01:22:29.144Z,64.00
2019-03-13T01:24:58.349Z,63.80
2019-03-13T01:27:27.536Z,63.64
2019-03-13T01:30:00.262Z,63.44
2019-03-13T01:32:51.447Z,63.76
2019-03-13T01:35:39.616Z,63.70
2019-03-13T01:38:09.386Z,63.91
2019-03-13T01:40:38.754Z,64.37
2019-03-13T01:43:11.162Z,63.50
2019-03-13T01:45:40.350Z,63.56
2019-03-13T01:48:09.451Z,63.93
2019-03-13T01:50:39.179Z,64.54
2019-03-13T01:53:08.379Z,64.11
2019-03-13T01:55:40.179Z,64.27
2019-03-13T01:58:09.643Z,64.51
2019-03-13T02:00:38.886Z,64.26
2019-03-13T02:03:08.270Z,64.70
2019-03-13T02:05:37.955Z,64.58
2019-03-13T02:08:11.889Z,64.92
2019-03-13T02:10:41.055Z,65.54
2019-03-13T02:13:10.252Z,65.20
2019-03-13T02:15:39.545Z,65.51
2019-03-13T02:18:08.785Z,65.26
2019-03-13T02:20:37.933Z,65.23
2019-03-13T02:23:07.422Z,65.17
2019-03-13T02:25:36.625Z,65.27
2019-03-13T02:28:05.778Z,65.52
2019-03-13T02:30:34.963Z,64.53
2019-03-13T02:33:04.180Z,64.02
2019-03-13T02:35:33.340Z,63.71
2019-03-13T02:38:02.511Z,63.64
2019-03-13T02:40:31.737Z,63.29
2019-03-13T02:43:01.105Z,63.25
2019-03-13T02:45:30.290Z,63.77
2019-03-13T02:47:59.533Z,63.52
2019-03-13T02:50:28.731Z,63.12
2019-03-13T02:52:57.967Z,62.72
2019-03-13T02:55:27.126Z,62.79
2019-03-13T02:57:56.928Z,62.69
2019-03-13T03:00:54.289Z,62.46
2019-03-13T03:03:35.085Z,62.37
2019-03-13T03:06:07.282Z,62.29
2019-03-13T03:08:36.542Z,62.02
2019-03-13T03:11:05.716Z,63.30
2019-03-13T03:13:34.922Z,62.06
2019-03-13T03:16:04.070Z,61.75
2019-03-13T03:18:33.253Z,61.47
2019-03-13T03:21:02.619Z,61.26
2019-03-13T03:23:31.731Z,61.18
2019-03-13T03:26:00.955Z,61.25
2019-03-13T03:28:30.088Z,61.37
2019-03-13T03:30:59.635Z,62.00
2019-03-13T03:33:28.864Z,62.10
2019-03-13T03:35:58.031Z,61.75
2019-03-13T03:38:28.995Z,61.72
2019-03-13T03:40:58.141Z,61.43
2019-03-13T03:43:40.257Z,61.10
2019-03-13T03:45:59.059Z,60.64
2019-03-13T03:48:28.261Z,60.55
2019-03-13T03:50:57.497Z,60.77
2019-03-13T03:53:26.695Z,60.64
2019-03-13T03:55:56.056Z,60.60
2019-03-13T03:58:29.062Z,60.43
2019-03-13T04:00:58.226Z,61.17
2019-03-13T04:03:36.908Z,60.64
2019-03-13T04:06:09.823Z,60.77
2019-03-13T04:08:38.975Z,60.32
2019-03-13T04:11:08.154Z,60.28
2019-03-13T04:13:37.436Z,59.92
2019-03-13T04:16:06.653Z,59.58
2019-03-13T04:18:36.330Z,59.59
2019-03-13T04:21:05.610Z,60.04
2019-03-13T04:23:35.025Z,59.28
2019-03-13T04:26:05.601Z,59.21
2019-03-13T04:28:34.765Z,59.62
2019-03-13T04:31:04.270Z,59.05
2019-03-13T04:33:34.354Z,59.96
2019-03-13T04:36:03.574Z,59.31
2019-03-13T04:38:32.815Z,59.20
2019-03-13T04:41:03.114Z,59.33
2019-03-13T04:43:32.747Z,59.23
2019-03-13T04:46:01.934Z,58.92
2019-03-13T04:48:31.144Z,58.86
2019-03-13T04:51:00.599Z,58.64
2019-03-13T04:53:30.214Z,58.43
2019-03-13T04:55:59.636Z,58.07
2019-03-13T04:58:28.886Z,57.80
2019-03-13T05:00:58.085Z,58.61
2019-03-13T05:03:29.974Z,57.22
2019-03-13T05:06:05.455Z,57.28
2019-03-13T05:09:06.924Z,57.14
2019-03-13T05:11:36.070Z,56.65
2019-03-13T05:14:05.397Z,57.14
2019-03-13T05:16:34.834Z,56.48
2019-03-13T05:19:04.047Z,56.62
2019-03-13T05:21:33.336Z,56.46
2019-03-13T05:24:02.639Z,56.35
2019-03-13T05:26:31.846Z,56.21
2019-03-13T05:29:01.537Z,56.21
2019-03-13T05:31:30.780Z,56.37
2019-03-13T05:34:03.647Z,56.43
2019-03-13T05:36:32.877Z,56.27
2019-03-13T05:39:02.065Z,56.30
2019-03-13T05:41:31.370Z,56.93
2019-03-13T05:44:00.546Z,55.89
2019-03-13T05:46:29.770Z,55.86
2019-03-13T05:48:58.944Z,55.74
2019-03-13T05:51:28.233Z,55.69
2019-03-13T05:53:57.733Z,56.01
2019-03-13T05:56:26.943Z,56.09
2019-03-13T05:58:56.113Z,56.06
2019-03-13T06:01:26.104Z,55.92
2019-03-13T06:03:55.285Z,55.47
2019-03-13T06:06:28.338Z,55.90
2019-03-13T06:08:57.528Z,55.92
2019-03-13T06:11:27.880Z,55.58
2019-03-13T06:13:57.143Z,55.73
2019-03-13T06:16:26.354Z,55.75
2019-03-13T06:18:55.754Z,55.59
2019-03-13T06:21:27.488Z,55.61
2019-03-13T06:23:58.689Z,55.60
2019-03-13T06:26:28.875Z,55.47
2019-03-13T06:28:59.500Z,55.57
2019-03-13T06:31:29.537Z,55.55
2019-03-13T06:33:58.795Z,56.42
2019-03-13T06:36:28.279Z,57.94
2019-03-13T06:38:58.788Z,57.35
2019-03-13T06:41:29.436Z,57.01
2019-03-13T06:43:59.011Z,56.75
2019-03-13T06:46:28.480Z,56.41
2019-03-13T06:48:57.807Z,56.70
2019-03-13T06:51:28.974Z,56.98
2019-03-13T06:54:04.366Z,57.04
2019-03-13T06:56:34.022Z,57.32
2019-03-13T06:59:23.778Z,57.66
2019-03-13T07:02:02.520Z,57.82
2019-03-13T07:04:59.738Z,57.53
2019-03-13T07:07:39.043Z,57.62
2019-03-13T07:10:23.221Z,57.72
2019-03-13T07:13:06.086Z,58.64
2019-03-13T07:15:45.929Z,58.31
2019-03-13T07:18:21.641Z,58.91
2019-03-13T07:21:08.187Z,59.33
2019-03-13T07:23:59.110Z,59.15
2019-03-13T07:26:35.721Z,59.68
2019-03-13T07:29:32.222Z,60.14
2019-03-13T07:32:38.363Z,59.97
2019-03-13T07:35:20.377Z,59.38
2019-03-13T07:38:23.216Z,58.93
2019-03-13T07:41:14.636Z,58.88
2019-03-13T07:44:16.554Z,58.37
2019-03-13T07:47:07.518Z,57.97
2019-03-13T07:49:59.324Z,58.22
2019-03-13T07:52:45.087Z,57.85
2019-03-13T07:55:35.892Z,58.62
2019-03-13T07:58:15.007Z,58.81
2019-03-13T08:01:17.999Z,58.64
2019-03-13T08:04:05.576Z,58.54
2019-03-13T08:06:56.540Z,59.37
2019-03-13T08:09:54.173Z,59.98
2019-03-13T08:12:39.833Z,60.90
2019-03-13T08:15:39.113Z,60.87
2019-03-13T08:18:27.219Z,60.57
2019-03-13T08:21:21.082Z,61.15
2019-03-13T08:24:18.323Z,63.06
2019-03-13T08:27:03.819Z,64.42
2019-03-13T08:29:44.396Z,64.72
2019-03-13T08:32:35.990Z,63.16
2019-03-13T08:35:21.098Z,63.53
2019-03-13T08:38:04.501Z,61.89
2019-03-13T08:40:52.638Z,61.47
2019-03-13T08:43:31.290Z,61.02
2019-03-13T08:46:18.141Z,60.73
2019-03-13T08:49:12.123Z,60.90
2019-03-13T08:51:47.691Z,60.85
2019-03-13T08:54:41.953Z,61.23
2019-03-13T08:57:24.202Z,60.99
2019-03-13T09:00:18.806Z,60.64
2019-03-13T09:03:15.363Z,60.76
2019-03-13T09:05:57.711Z,60.78
2019-03-13T09:08:52.864Z,60.20
2019-03-13T09:11:39.392Z,59.81
2019-03-13T09:14:26.767Z,60.10
2019-03-13T09:17:13.755Z,59.94
2019-03-13T09:20:02.356Z,60.06
2019-03-13T09:23:03.385Z,59.96
2019-03-13T09:26:06.815Z,60.45
2019-03-13T09:28:57.726Z,60.03
2019-03-13T09:31:39.047Z,60.18
2019-03-13T09:34:30.915Z,59.86
2019-03-13T09:37:17.661Z,60.00
2019-03-13T09:40:05.824Z,59.63
2019-03-13T09:42:54.124Z,61.61
2019-03-13T09:45:39.593Z,63.52
2019-03-13T09:48:33.587Z,63.99
2019-03-13T09:51:10.238Z,66.74
2019-03-13T09:53:52.345Z,69.88
2019-03-13T09:56:39.135Z,70.40
2019-03-13T09:59:24.698Z,70.18
2019-03-13T10:02:13.102Z,69.56
2019-03-13T10:04:58.753Z,71.09
2019-03-13T10:07:45.444Z,71.99
2019-03-13T10:10:28.333Z,72.74
2019-03-13T10:13:16.428Z,72.40
2019-03-13T10:16:10.639Z,73.20
2019-03-13T10:19:01.645Z,72.43
2019-03-13T10:21:59.343Z,70.76
2019-03-13T10:24:50.272Z,69.95
2019-03-13T10:27:43.851Z,69.93
2019-03-13T10:30:20.630Z,70.64
2019-03-13T10:33:07.223Z,69.14
2019-03-13T10:35:49.740Z,69.08
2019-03-13T10:38:50.043Z,68.55
2019-03-13T10:41:34.371Z,68.83
2019-03-13T10:44:15.220Z,68.77
2019-03-13T10:46:54.545Z,68.30
2019-03-13T10:49:36.579Z,66.89
2019-03-13T10:52:25.593Z,66.23
2019-03-13T10:55:14.284Z,66.56
2019-03-13T10:58:05.534Z,66.16
2019-03-13T11:00:49.940Z,65.47
2019-03-13T11:03:32.295Z,66.28
2019-03-13T11:06:30.010Z,65.27
2019-03-13T11:09:20.898Z,65.12
2019-03-13T11:12:11.801Z,64.55
2019-03-13T11:15:09.155Z,64.11
2019-03-13T11:17:51.078Z,63.39
2019-03-13T11:20:37.581Z,62.66
2019-03-13T11:23:31.509Z,62.87
2019-03-13T11:26:24.615Z,63.07
2019-03-13T11:29:21.663Z,62.78
2019-03-13T11:32:05.886Z,62.10
2019-03-13T11:34:54.139Z,61.92
2019-03-13T11:37:34.722Z,62.14
2019-03-13T11:40:25.390Z,63.22
2019-03-13T11:43:14.521Z,62.34
2019-03-13T11:46:20.960Z,62.91
2019-03-13T11:49:10.395Z,62.79
2019-03-13T11:51:49.960Z,62.25
2019-03-13T11:54:43.990Z,62.37
2019-03-13T11:57:19.817Z,62.01
2019-03-13T12:00:05.285Z,62.08
2019-03-13T12:02:51.944Z,62.33
2019-03-13T12:05:38.425Z,62.64
2019-03-13T12:08:45.057Z,62.67
2019-03-13T12:11:34.246Z,61.60
2019-03-13T12:14:31.584Z,61.80
2019-03-13T12:17:11.552Z,61.60
2019-03-13T12:20:01.887Z,61.97
2019-03-13T12:22:56.192Z,62.35
2019-03-13T12:25:36.113Z,63.16
2019-03-13T12:28:33.634Z,65.52
2019-03-13T12:31:30.844Z,69.76
2019-03-13T12:34:17.645Z,72.13
2019-03-13T12:36:59.637Z,73.98
2019-03-13T12:39:46.485Z,75.15
2019-03-13T12:42:46.609Z,76.67
2019-03-13T12:45:43.892Z,79.59
2019-03-13T12:48:30.449Z,80.36
2019-03-13T12:51:17.531Z,80.58
2019-03-13T12:54:00.074Z,80.53
2019-03-13T12:56:50.608Z,80.54
2019-03-13T12:59:53.871Z,80.59
2019-03-13T13:02:36.232Z,79.80
2019-03-13T13:05:24.486Z,79.66
2019-03-13T13:08:11.298Z,80.22
2019-03-13T13:11:14.560Z,79.52
2019-03-13T13:14:09.903Z,80.94
2019-03-13T13:16:57.069Z,81.70
2019-03-13T13:19:26.365Z,80.58
2019-03-13T13:21:58.515Z,80.12
2019-03-13T13:24:27.909Z,78.57
2019-03-13T13:26:57.152Z,78.49
2019-03-13T13:29:26.345Z,77.81
2019-03-13T13:31:55.850Z,78.25
2019-03-13T13:34:25.058Z,78.39
2019-03-13T13:36:54.562Z,77.33
2019-03-13T13:39:23.893Z,76.45
2019-03-13T13:41:53.059Z,77.07
2019-03-13T13:44:22.732Z,75.64
2019-03-13T13:46:52.094Z,75.26
2019-03-13T13:49:21.345Z,74.16
2019-03-13T13:51:50.772Z,74.23
2019-03-13T13:54:20.068Z,75.27
2019-03-13T13:56:49.243Z,75.00
2019-03-13T13:59:18.472Z,74.60
2019-03-13T14:01:47.765Z,74.83
2019-03-13T14:04:16.958Z,75.70
2019-03-13T14:06:46.310Z,76.66
2019-03-13T14:09:15.586Z,75.78
2019-03-13T14:11:50.889Z,75.56
2019-03-13T14:14:20.124Z,75.53
2019-03-13T14:16:49.587Z,76.21
2019-03-13T14:19:18.779Z,74.31
2019-03-13T14:21:48.935Z,73.99
2019-03-13T14:24:18.333Z,73.60
2019-03-13T14:26:47.713Z,73.37
2019-03-13T14:29:17.204Z,72.33
2019-03-13T14:31:46.669Z,72.65
2019-03-13T14:34:19.542Z,73.87
2019-03-13T14:36:52.007Z,74.22
2019-03-13T14:39:22.270Z,74.04
2019-03-13T14:41:51.696Z,75.07
2019-03-13T14:44:20.982Z,75.85
2019-03-13T14:46:52.077Z,74.88
2019-03-13T14:49:21.323Z,76.88
2019-03-13T14:51:50.860Z,77.46
2019-03-13T14:54:20.212Z,77.70
2019-03-13T14:56:50.527Z,76.27
2019-03-13T14:59:22.876Z,77.88
2019-03-13T15:02:04.343Z,78.66
2019-03-13T15:04:33.649Z,78.22
2019-03-13T15:07:02.963Z,78.82
2019-03-13T15:09:32.820Z,79.83
2019-03-13T15:12:02.012Z,80.63
2019-03-13T15:14:34.194Z,80.48
2019-03-13T15:17:04.507Z,80.48
2019-03-13T15:19:33.897Z,81.04
2019-03-13T15:22:03.055Z,81.56
2019-03-13T15:24:32.428Z,81.83
2019-03-13T15:27:02.179Z,80.84
2019-03-13T15:29:32.351Z,82.51
2019-03-13T15:32:01.538Z,82.47
2019-03-13T15:34:33.261Z,81.73
2019-03-13T15:37:02.548Z,82.57
2019-03-13T15:39:34.242Z,83.26
2019-03-13T15:42:03.479Z,84.24
2019-03-13T15:44:32.753Z,83.49
2019-03-13T15:47:04.187Z,85.15
2019-03-13T15:49:33.564Z,85.20
2019-03-13T15:52:03.093Z,86.22
2019-03-13T15:54:32.668Z,86.58
2019-03-13T15:57:01.998Z,88.33
2019-03-13T15:59:31.284Z,88.12
2019-03-13T16:02:02.615Z,85.33
2019-03-13T16:04:32.073Z,87.47
2019-03-13T16:07:01.394Z,88.84
2019-03-13T16:09:30.657Z,88.83
2019-03-13T16:11:59.906Z,86.74
2019-03-13T16:14:29.298Z,85.08
2019-03-13T16:17:00.379Z,85.92
2019-03-13T16:19:30.476Z,85.49
2019-03-13T16:21:59.830Z,87.23
2019-03-13T16:24:29.072Z,88.63
2019-03-13T16:26:58.330Z,89.67
2019-03-13T16:29:30.830Z,89.94
2019-03-13T16:32:00.028Z,90.06
2019-03-13T16:34:29.195Z,89.77
2019-03-13T16:36:58.596Z,90.06
2019-03-13T16:39:31.486Z,90.78
2019-03-13T16:42:01.183Z,91.14
2019-03-13T16:44:30.742Z,91.61
2019-03-13T16:47:00.016Z,92.12
2019-03-13T16:49:29.212Z,92.26
2019-03-13T16:51:58.456Z,91.78
2019-03-13T16:54:27.715Z,91.81
2019-03-13T16:56:56.916Z,91.94
2019-03-13T16:59:26.342Z,92.13
2019-03-13T17:01:57.117Z,92.19
2019-03-13T17:04:26.446Z,92.61
2019-03-13T17:06:55.982Z,92.88
2019-03-13T17:09:25.234Z,93.16
2019-03-13T17:11:54.353Z,93.18
2019-03-13T17:14:23.831Z,93.31
2019-03-13T17:16:52.974Z,93.35
2019-03-13T17:19:22.286Z,93.25
2019-03-13T17:21:51.527Z,93.31
2019-03-13T17:24:20.749Z,93.10
2019-03-13T17:26:52.199Z,93.27
2019-03-13T17:29:21.371Z,92.36
2019-03-13T17:31:52.747Z,91.88
2019-03-13T17:34:23.990Z,92.41
2019-03-13T17:36:53.218Z,92.14
2019-03-13T17:39:22.650Z,92.65
2019-03-13T17:41:52.134Z,92.87
2019-03-13T17:44:21.541Z,93.12
2019-03-13T17:46:50.706Z,92.71
2019-03-13T17:49:22.759Z,92.79
2019-03-13T17:51:51.946Z,92.21
2019-03-13T17:54:21.192Z,91.95
2019-03-13T17:56:50.411Z,91.34
2019-03-13T17:59:21.291Z,89.55
2019-03-13T18:01:50.614Z,87.44
2019-03-13T18:04:24.641Z,85.61
2019-03-13T18:06:53.807Z,85.70
2019-03-13T18:09:23.063Z,85.66
2019-03-13T18:11:52.234Z,84.82
2019-03-13T18:14:21.464Z,85.33
2019-03-13T18:16:52.736Z,85.87
2019-03-13T18:19:24.991Z,86.45
2019-03-13T18:21:54.522Z,86.59
2019-03-13T18:24:44.811Z,86.46
2019-03-13T18:27:14.141Z,87.04
2019-03-13T18:29:45.720Z,86.46
2019-03-13T18:32:15.014Z,87.15
2019-03-13T18:34:47.329Z,87.57
2019-03-13T18:37:16.540Z,86.60
2019-03-13T18:39:48.855Z,87.05
2019-03-13T18:42:17.991Z,86.53
2019-03-13T18:44:47.140Z,86.97
2019-03-13T18:47:16.698Z,86.31
2019-03-13T18:49:45.877Z,87.05
2019-03-13T18:52:15.156Z,87.45
2019-03-13T18:54:44.420Z,86.10
2019-03-13T18:57:15.932Z,85.89
2019-03-13T18:59:45.134Z,84.68
2019-03-13T19:02:17.197Z,84.74
2019-03-13T19:04:46.398Z,84.03
2019-03-13T19:07:18.634Z,84.69
2019-03-13T19:09:50.013Z,82.83
2019-03-13T19:12:22.951Z,83.21
2019-03-13T19:14:52.280Z,83.98
2019-03-13T19:17:21.469Z,84.25
2019-03-13T19:19:50.799Z,84.47
2019-03-13T19:22:20.072Z,84.26
2019-03-13T19:24:49.878Z,84.25
2019-03-13T19:27:22.183Z,84.09
2019-03-13T19:29:51.363Z,83.96
2019-03-13T19:32:20.553Z,83.69
2019-03-13T19:34:49.775Z,82.31
2019-03-13T19:37:20.083Z,81.79
2019-03-13T19:39:49.314Z,81.82
2019-03-13T19:42:21.550Z,81.52
2019-03-13T19:44:53.604Z,80.71
2019-03-13T19:47:22.864Z,79.72
2019-03-13T19:49:59.465Z,77.64
2019-03-13T19:52:28.683Z,77.31
2019-03-13T19:54:57.843Z,77.26
2019-03-13T19:57:27.897Z,77.39
2019-03-13T19:59:57.117Z,75.22
2019-03-13T20:02:35.126Z,75.15
2019-03-13T20:05:04.308Z,76.16
2019-03-13T20:07:33.979Z,77.50
2019-03-13T20:10:03.367Z,77.38
2019-03-13T20:12:33.466Z,76.24
2019-03-13T20:15:02.679Z,77.03
2019-03-13T20:17:32.222Z,77.05
2019-03-13T20:20:02.570Z,77.38
2019-03-13T20:22:35.113Z,77.99
2019-03-13T20:25:04.283Z,78.98
2019-03-13T20:27:41.199Z,79.14
2019-03-13T20:30:14.786Z,79.16
2019-03-13T20:32:44.379Z,78.80
2019-03-13T20:35:13.571Z,79.26
2019-03-13T20:37:42.770Z,79.77
2019-03-13T20:40:17.798Z,80.21
2019-03-13T20:42:47.031Z,80.50
2019-03-13T20:45:18.872Z,80.48
2019-03-13T20:47:48.111Z,81.04
2019-03-13T20:50:17.385Z,80.51
2019-03-13T20:52:48.845Z,80.82
2019-03-13T20:55:19.328Z,81.07
2019-03-13T20:57:48.785Z,80.76
2019-03-13T21:00:20.343Z,81.15
2019-03-13T21:02:50.042Z,80.45
2019-03-13T21:05:19.877Z,79.64
2019-03-13T21:07:49.120Z,80.25
2019-03-13T21:10:18.583Z,79.80
2019-03-13T21:12:47.839Z,79.69
2019-03-13T21:15:17.621Z,79.33
2019-03-13T21:17:46.969Z,78.86
2019-03-13T21:20:16.510Z,78.37
2019-03-13T21:22:45.854Z,78.33
2019-03-13T21:25:15.407Z,78.72
2019-03-13T21:27:47.553Z,78.83
2019-03-13T21:30:22.163Z,78.07
2019-03-13T21:32:51.946Z,78.58
2019-03-13T21:35:21.175Z,78.67
2019-03-13T21:37:50.462Z,78.13
2019-03-13T21:40:19.844Z,77.41
2019-03-13T21:42:49.093Z,77.81
2019-03-13T21:45:22.892Z,78.54
2019-03-13T21:47:49.841Z,79.24
2019-03-13T21:50:20.598Z,78.91
2019-03-13T21:52:51.842Z,79.92
2019-03-13T21:55:21.708Z,79.87
2019-03-13T21:57:52.297Z,79.00
2019-03-13T22:00:22.712Z,79.63
2019-03-13T22:02:51.882Z,79.92
2019-03-13T22:05:26.356Z,80.17
2019-03-13T22:07:52.157Z,79.41
2019-03-13T22:10:21.528Z,79.47
2019-03-13T22:12:50.797Z,79.13
2019-03-13T22:15:19.947Z,79.31
2019-03-13T22:17:49.176Z,78.77
2019-03-13T22:20:18.341Z,77.90
2019-03-13T22:22:48.004Z,77.64
2019-03-13T22:25:17.475Z,76.65
2019-03-13T22:27:46.701Z,76.49
2019-03-13T22:30:20.782Z,76.27
2019-03-13T22:32:49.955Z,75.89
2019-03-13T22:35:19.161Z,75.56
2019-03-13T22:37:48.453Z,75.56
2019-03-13T22:40:17.705Z,75.47
2019-03-13T22:42:46.932Z,73.96
2019-03-13T22:45:19.346Z,74.12
2019-03-13T22:47:48.504Z,74.19
2019-03-13T22:50:18.368Z,73.68
2019-03-13T22:52:47.547Z,72.77
2019-03-13T22:55:16.911Z,73.63
2019-03-13T22:57:46.092Z,73.33
2019-03-13T23:00:59.014Z,73.65
2019-03-13T23:03:29.757Z,73.84
2019-03-13T23:05:59.095Z,73.80
2019-03-13T23:08:31.385Z,74.38
2019-03-13T23:11:01.085Z,74.27
2019-03-13T23:13:30.289Z,73.02
2019-03-13T23:15:59.859Z,73.89
2019-03-13T23:18:29.054Z,73.94
2019-03-13T23:20:58.790Z,73.63
2019-03-13T23:23:28.153Z,74.19
2019-03-13T23:25:57.683Z,74.26
2019-03-13T23:28:27.038Z,75.46
2019-03-13T23:30:58.580Z,77.83
2019-03-13T23:33:30.206Z,80.69
2019-03-13T23:35:59.505Z,80.98
2019-03-13T23:38:28.900Z,81.75
2019-03-13T23:40:58.686Z,81.60
2019-03-13T23:43:32.174Z,82.49
2019-03-13T23:46:01.985Z,83.26
2019-03-13T23:48:31.517Z,83.83
2019-03-13T23:51:00.950Z,82.78
2019-03-13T23:53:30.123Z,80.49
2019-03-13T23:55:59.363Z,79.27
2019-03-13T23:58:28.626Z,80.00
